sensor_id;sensor_type;location;lat;lon;timestamp;P1;durP1;ratioP1;P2;durP2;ratioP2
54679;SDS011;40578;53.178;5.846;2022-08-01T00:01:45;7.17;;;4.00;;
54679;SDS011;40578;53.178;5.846;2022-08-01T00:04:11;9.83;;;4.93;;
54679;SDS011;40578;53.178;5.846;2022-08-01T00:06:36;8.17;;;5.63;;
54679;SDS011;40578;53.178;5.846;2022-08-01T00:09:02;7.87;;;5.60;;
54679;SDS011;40578;53.178;5.846;2022-08-01T00:11:27;9.27;;;6.37;;
54679;SDS011;40578;53.178;5.846;2022-08-01T00:13:53;11.07;;;7.03;;
54679;SDS011;40578;53.178;5.846;2022-08-01T00:16:18;16.10;;;7.47;;
54679;SDS011;40578;53.178;5.846;2022-08-01T00:18:47;11.20;;;7.25;;
54679;SDS011;40578;53.178;5.846;2022-08-01T00:21:14;13.27;;;6.85;;
54679;SDS011;40578;53.178;5.846;2022-08-01T00:23:39;10.63;;;6.80;;
54679;SDS011;40578;53.178;5.846;2022-08-01T00:26:05;14.67;;;6.73;;
54679;SDS011;40578;53.178;5.846;2022-08-01T00:28:31;13.13;;;6.53;;
54679;SDS011;40578;53.178;5.846;2022-08-01T00:30:56;13.53;;;7.07;;
54679;SDS011;40578;53.178;5.846;2022-08-01T00:33:22;10.17;;;6.87;;
54679;SDS011;40578;53.178;5.846;2022-08-01T00:35:47;16.37;;;7.37;;
54679;SDS011;40578;53.178;5.846;2022-08-01T00:38:13;13.83;;;7.33;;
54679;SDS011;40578;53.178;5.846;2022-08-01T00:40:38;14.57;;;7.17;;
54679;SDS011;40578;53.178;5.846;2022-08-01T00:43:04;16.07;;;6.93;;
54679;SDS011;40578;53.178;5.846;2022-08-01T00:45:30;11.40;;;6.90;;
54679;SDS011;40578;53.178;5.846;2022-08-01T00:47:55;12.63;;;7.37;;
54679;SDS011;40578;53.178;5.846;2022-08-01T00:50:21;16.03;;;7.17;;
54679;SDS011;40578;53.178;5.846;2022-08-01T00:52:46;13.10;;;6.50;;
54679;SDS011;40578;53.178;5.846;2022-08-01T00:55:13;13.45;;;6.40;;
54679;SDS011;40578;53.178;5.846;2022-08-01T00:57:40;10.13;;;6.03;;
54679;SDS011;40578;53.178;5.846;2022-08-01T01:00:06;10.63;;;5.13;;
54679;SDS011;40578;53.178;5.846;2022-08-01T01:02:32;9.60;;;5.03;;
54679;SDS011;40578;53.178;5.846;2022-08-01T01:04:58;8.43;;;4.50;;
54679;SDS011;40578;53.178;5.846;2022-08-01T01:10:09;10.00;;;4.25;;
54679;SDS011;40578;53.178;5.846;2022-08-01T01:12:50;11.40;;;4.70;;
54679;SDS011;40578;53.178;5.846;2022-08-01T01:15:28;8.18;;;4.40;;
54679;SDS011;40578;53.178;5.846;2022-08-01T01:18:11;8.10;;;4.28;;
54679;SDS011;40578;53.178;5.846;2022-08-01T01:20:47;9.70;;;4.18;;
54679;SDS011;40578;53.178;5.846;2022-08-01T01:34:19;8.97;;;4.70;;
54679;SDS011;40578;53.178;5.846;2022-08-01T01:36:47;11.48;;;4.20;;
54679;SDS011;40578;53.178;5.846;2022-08-01T01:39:15;11.02;;;4.10;;
54679;SDS011;40578;53.178;5.846;2022-08-01T01:41:42;12.40;;;4.47;;
54679;SDS011;40578;53.178;5.846;2022-08-01T01:44:10;12.25;;;4.40;;
54679;SDS011;40578;53.178;5.846;2022-08-01T01:46:36;12.60;;;4.30;;
54679;SDS011;40578;53.178;5.846;2022-08-01T01:49:03;14.15;;;4.20;;
54679;SDS011;40578;53.178;5.846;2022-08-01T01:51:30;21.70;;;5.15;;
54679;SDS011;40578;53.178;5.846;2022-08-01T01:56:23;13.57;;;4.50;;
54679;SDS011;40578;53.178;5.846;2022-08-01T01:58:54;12.80;;;4.75;;
54679;SDS011;40578;53.178;5.846;2022-08-01T02:01:23;13.63;;;4.95;;
54679;SDS011;40578;53.178;5.846;2022-08-01T02:03:53;15.05;;;4.78;;
54679;SDS011;40578;53.178;5.846;2022-08-01T02:06:21;15.35;;;5.00;;
54679;SDS011;40578;53.178;5.846;2022-08-01T02:08:49;15.50;;;5.40;;
54679;SDS011;40578;53.178;5.846;2022-08-01T02:11:17;16.88;;;4.90;;
54679;SDS011;40578;53.178;5.846;2022-08-01T02:13:45;15.55;;;4.60;;
54679;SDS011;40578;53.178;5.846;2022-08-01T02:16:15;18.60;;;5.60;;
54679;SDS011;40578;53.178;5.846;2022-08-01T02:18:42;14.35;;;5.20;;
54679;SDS011;40578;53.178;5.846;2022-08-01T02:21:08;16.17;;;4.90;;
54679;SDS011;40578;53.178;5.846;2022-08-01T02:23:37;14.90;;;4.72;;
54679;SDS011;40578;53.178;5.846;2022-08-01T02:26:07;10.10;;;4.90;;
54679;SDS011;40578;53.178;5.846;2022-08-01T02:28:41;14.63;;;5.00;;
54679;SDS011;40578;53.178;5.846;2022-08-01T02:31:12;14.80;;;5.22;;
54679;SDS011;40578;53.178;5.846;2022-08-01T02:33:41;14.77;;;4.93;;
54679;SDS011;40578;53.178;5.846;2022-08-01T02:36:09;14.68;;;5.57;;
54679;SDS011;40578;53.178;5.846;2022-08-01T02:38:39;14.68;;;5.28;;
54679;SDS011;40578;53.178;5.846;2022-08-01T02:41:08;15.50;;;4.43;;
54679;SDS011;40578;53.178;5.846;2022-08-01T02:43:38;13.18;;;4.47;;
54679;SDS011;40578;53.178;5.846;2022-08-01T02:46:08;12.18;;;4.72;;
54679;SDS011;40578;53.178;5.846;2022-08-01T02:48:41;12.82;;;4.80;;
54679;SDS011;40578;53.178;5.846;2022-08-01T02:51:08;16.65;;;4.80;;
54679;SDS011;40578;53.178;5.846;2022-08-01T02:53:37;13.60;;;4.40;;
54679;SDS011;40578;53.178;5.846;2022-08-01T02:56:06;13.20;;;4.57;;
54679;SDS011;40578;53.178;5.846;2022-08-01T02:58:33;10.55;;;4.50;;
54679;SDS011;40578;53.178;5.846;2022-08-01T03:01:01;11.73;;;5.10;;
54679;SDS011;40578;53.178;5.846;2022-08-01T03:03:27;13.65;;;4.80;;
54679;SDS011;40578;53.178;5.846;2022-08-01T03:05:54;13.93;;;4.63;;
54679;SDS011;40578;53.178;5.846;2022-08-01T03:08:21;14.27;;;4.78;;
54679;SDS011;40578;53.178;5.846;2022-08-01T03:10:48;11.07;;;4.63;;
54679;SDS011;40578;53.178;5.846;2022-08-01T03:13:16;12.40;;;4.80;;
54679;SDS011;40578;53.178;5.846;2022-08-01T03:15:43;11.55;;;4.60;;
54679;SDS011;40578;53.178;5.846;2022-08-01T03:18:10;13.10;;;5.05;;
54679;SDS011;40578;53.178;5.846;2022-08-01T03:20:38;14.27;;;4.60;;
54679;SDS011;40578;53.178;5.846;2022-08-01T03:23:05;18.77;;;5.85;;
54679;SDS011;40578;53.178;5.846;2022-08-01T03:25:34;16.02;;;4.60;;
54679;SDS011;40578;53.178;5.846;2022-08-01T03:28:03;13.05;;;4.97;;
54679;SDS011;40578;53.178;5.846;2022-08-01T03:30:31;12.48;;;4.68;;
54679;SDS011;40578;53.178;5.846;2022-08-01T03:32:58;11.48;;;4.47;;
54679;SDS011;40578;53.178;5.846;2022-08-01T03:35:28;15.27;;;4.50;;
54679;SDS011;40578;53.178;5.846;2022-08-01T03:37:58;16.50;;;4.57;;
54679;SDS011;40578;53.178;5.846;2022-08-01T03:40:31;16.63;;;4.30;;
54679;SDS011;40578;53.178;5.846;2022-08-01T03:43:02;14.32;;;3.92;;
54679;SDS011;40578;53.178;5.846;2022-08-01T03:45:34;12.27;;;3.70;;
54679;SDS011;40578;53.178;5.846;2022-08-01T03:48:05;16.55;;;4.28;;
54679;SDS011;40578;53.178;5.846;2022-08-01T03:50:34;12.93;;;3.58;;
54679;SDS011;40578;53.178;5.846;2022-08-01T03:53:02;14.45;;;3.25;;
54679;SDS011;40578;53.178;5.846;2022-08-01T03:55:29;12.98;;;3.83;;
54679;SDS011;40578;53.178;5.846;2022-08-01T03:57:56;18.80;;;4.22;;
54679;SDS011;40578;53.178;5.846;2022-08-01T04:00:22;12.63;;;3.80;;
54679;SDS011;40578;53.178;5.846;2022-08-01T04:02:49;21.70;;;4.05;;
54679;SDS011;40578;53.178;5.846;2022-08-01T04:05:16;13.10;;;3.47;;
54679;SDS011;40578;53.178;5.846;2022-08-01T04:07:45;15.07;;;3.78;;
54679;SDS011;40578;53.178;5.846;2022-08-01T04:10:12;18.13;;;3.72;;
54679;SDS011;40578;53.178;5.846;2022-08-01T04:12:38;17.17;;;3.83;;
54679;SDS011;40578;53.178;5.846;2022-08-01T04:15:04;12.30;;;3.37;;
54679;SDS011;40578;53.178;5.846;2022-08-01T04:19:56;10.77;;;3.20;;
54679;SDS011;40578;53.178;5.846;2022-08-01T04:22:22;19.67;;;4.17;;
54679;SDS011;40578;53.178;5.846;2022-08-01T04:24:48;18.47;;;4.03;;
54679;SDS011;40578;53.178;5.846;2022-08-01T04:27:22;18.60;;;3.78;;
54679;SDS011;40578;53.178;5.846;2022-08-01T04:29:51;13.57;;;3.45;;
54679;SDS011;40578;53.178;5.846;2022-08-01T04:32:18;15.77;;;3.13;;
54679;SDS011;40578;53.178;5.846;2022-08-01T04:34:46;16.65;;;3.40;;
54679;SDS011;40578;53.178;5.846;2022-08-01T04:37:14;14.00;;;3.47;;
54679;SDS011;40578;53.178;5.846;2022-08-01T04:39:41;19.98;;;4.07;;
54679;SDS011;40578;53.178;5.846;2022-08-01T04:42:09;16.95;;;3.45;;
54679;SDS011;40578;53.178;5.846;2022-08-01T04:44:36;13.52;;;3.38;;
54679;SDS011;40578;53.178;5.846;2022-08-01T04:47:03;11.82;;;3.70;;
54679;SDS011;40578;53.178;5.846;2022-08-01T04:49:33;19.75;;;4.13;;
54679;SDS011;40578;53.178;5.846;2022-08-01T04:52:00;23.13;;;3.88;;
54679;SDS011;40578;53.178;5.846;2022-08-01T04:54:26;19.13;;;4.03;;
54679;SDS011;40578;53.178;5.846;2022-08-01T04:56:52;13.93;;;3.17;;
54679;SDS011;40578;53.178;5.846;2022-08-01T04:59:23;14.25;;;3.83;;
54679;SDS011;40578;53.178;5.846;2022-08-01T05:02:04;15.50;;;3.28;;
54679;SDS011;40578;53.178;5.846;2022-08-01T05:04:30;16.00;;;3.78;;
54679;SDS011;40578;53.178;5.846;2022-08-01T05:06:56;13.13;;;4.47;;
54679;SDS011;40578;53.178;5.846;2022-08-01T05:09:22;16.97;;;4.00;;
54679;SDS011;40578;53.178;5.846;2022-08-01T05:11:47;16.47;;;3.50;;
54679;SDS011;40578;53.178;5.846;2022-08-01T05:14:13;12.90;;;3.00;;
54679;SDS011;40578;53.178;5.846;2022-08-01T05:16:39;11.43;;;3.60;;
54679;SDS011;40578;53.178;5.846;2022-08-01T05:19:04;19.50;;;4.43;;
54679;SDS011;40578;53.178;5.846;2022-08-01T05:21:30;18.97;;;4.03;;
54679;SDS011;40578;53.178;5.846;2022-08-01T05:23:56;16.30;;;3.80;;
54679;SDS011;40578;53.178;5.846;2022-08-01T05:26:22;19.52;;;4.90;;
54679;SDS011;40578;53.178;5.846;2022-08-01T05:28:48;22.77;;;4.10;;
54679;SDS011;40578;53.178;5.846;2022-08-01T05:31:14;20.93;;;4.57;;
54679;SDS011;40578;53.178;5.846;2022-08-01T05:33:39;14.23;;;3.87;;
54679;SDS011;40578;53.178;5.846;2022-08-01T05:36:05;29.07;;;4.47;;
54679;SDS011;40578;53.178;5.846;2022-08-01T05:38:30;20.97;;;4.97;;
54679;SDS011;40578;53.178;5.846;2022-08-01T05:40:56;15.30;;;4.50;;
54679;SDS011;40578;53.178;5.846;2022-08-01T05:43:22;13.53;;;3.87;;
54679;SDS011;40578;53.178;5.846;2022-08-01T05:45:47;15.83;;;4.10;;
54679;SDS011;40578;53.178;5.846;2022-08-01T05:48:13;15.93;;;3.70;;
54679;SDS011;40578;53.178;5.846;2022-08-01T05:50:39;15.77;;;3.83;;
54679;SDS011;40578;53.178;5.846;2022-08-01T05:53:05;12.60;;;3.63;;
54679;SDS011;40578;53.178;5.846;2022-08-01T05:55:30;20.63;;;4.17;;
54679;SDS011;40578;53.178;5.846;2022-08-01T05:57:56;22.30;;;4.33;;
54679;SDS011;40578;53.178;5.846;2022-08-01T06:00:22;17.50;;;4.13;;
54679;SDS011;40578;53.178;5.846;2022-08-01T06:02:47;22.93;;;4.83;;
54679;SDS011;40578;53.178;5.846;2022-08-01T06:05:13;14.93;;;4.17;;
54679;SDS011;40578;53.178;5.846;2022-08-01T06:07:38;17.77;;;4.40;;
54679;SDS011;40578;53.178;5.846;2022-08-01T06:10:05;17.53;;;4.23;;
54679;SDS011;40578;53.178;5.846;2022-08-01T06:15:00;19.90;;;4.05;;
54679;SDS011;40578;53.178;5.846;2022-08-01T06:17:26;19.43;;;3.90;;
54679;SDS011;40578;53.178;5.846;2022-08-01T06:19:51;13.47;;;3.33;;
54679;SDS011;40578;53.178;5.846;2022-08-01T06:22:17;13.33;;;3.73;;
54679;SDS011;40578;53.178;5.846;2022-08-01T06:24:42;13.93;;;3.07;;
54679;SDS011;40578;53.178;5.846;2022-08-01T06:27:08;13.33;;;2.97;;
54679;SDS011;40578;53.178;5.846;2022-08-01T06:29:33;12.87;;;3.63;;
54679;SDS011;40578;53.178;5.846;2022-08-01T06:31:59;17.13;;;3.77;;
54679;SDS011;40578;53.178;5.846;2022-08-01T06:34:25;16.20;;;4.07;;
54679;SDS011;40578;53.178;5.846;2022-08-01T06:36:51;12.17;;;3.60;;
54679;SDS011;40578;53.178;5.846;2022-08-01T06:39:17;10.77;;;3.10;;
54679;SDS011;40578;53.178;5.846;2022-08-01T06:41:42;17.17;;;2.97;;
54679;SDS011;40578;53.178;5.846;2022-08-01T06:44:11;12.90;;;2.83;;
54679;SDS011;40578;53.178;5.846;2022-08-01T06:46:37;14.02;;;3.75;;
54679;SDS011;40578;53.178;5.846;2022-08-01T06:49:02;12.97;;;3.20;;
54679;SDS011;40578;53.178;5.846;2022-08-01T06:51:28;14.87;;;3.43;;
54679;SDS011;40578;53.178;5.846;2022-08-01T06:53:54;13.97;;;2.67;;
54679;SDS011;40578;53.178;5.846;2022-08-01T06:56:19;11.77;;;3.17;;
54679;SDS011;40578;53.178;5.846;2022-08-01T06:58:45;12.77;;;2.90;;
54679;SDS011;40578;53.178;5.846;2022-08-01T07:01:10;13.93;;;3.37;;
54679;SDS011;40578;53.178;5.846;2022-08-01T07:03:36;14.10;;;2.83;;
54679;SDS011;40578;53.178;5.846;2022-08-01T07:06:02;13.55;;;2.72;;
54679;SDS011;40578;53.178;5.846;2022-08-01T07:08:28;10.40;;;2.50;;
54679;SDS011;40578;53.178;5.846;2022-08-01T07:10:53;12.87;;;3.17;;
54679;SDS011;40578;53.178;5.846;2022-08-01T07:15:46;8.68;;;2.60;;
54679;SDS011;40578;53.178;5.846;2022-08-01T07:18:12;6.95;;;2.38;;
54679;SDS011;40578;53.178;5.846;2022-08-01T07:20:38;8.50;;;2.43;;
54679;SDS011;40578;53.178;5.846;2022-08-01T07:23:03;11.67;;;2.63;;
54679;SDS011;40578;53.178;5.846;2022-08-01T07:25:29;11.03;;;2.90;;
54679;SDS011;40578;53.178;5.846;2022-08-01T07:27:55;15.00;;;3.10;;
54679;SDS011;40578;53.178;5.846;2022-08-01T07:30:20;13.13;;;2.30;;
54679;SDS011;40578;53.178;5.846;2022-08-01T07:32:47;11.90;;;2.73;;
54679;SDS011;40578;53.178;5.846;2022-08-01T07:35:13;7.50;;;2.22;;
54679;SDS011;40578;53.178;5.846;2022-08-01T07:37:39;11.53;;;3.37;;
54679;SDS011;40578;53.178;5.846;2022-08-01T07:40:04;11.60;;;2.60;;
54679;SDS011;40578;53.178;5.846;2022-08-01T07:42:31;8.65;;;2.30;;
54679;SDS011;40578;53.178;5.846;2022-08-01T07:44:56;8.68;;;2.25;;
54679;SDS011;40578;53.178;5.846;2022-08-01T07:47:25;13.67;;;2.63;;
54679;SDS011;40578;53.178;5.846;2022-08-01T07:49:51;8.02;;;2.20;;
54679;SDS011;40578;53.178;5.846;2022-08-01T07:52:23;10.40;;;2.85;;
54679;SDS011;40578;53.178;5.846;2022-08-01T07:54:49;11.13;;;2.77;;
54679;SDS011;40578;53.178;5.846;2022-08-01T07:57:14;11.87;;;2.37;;
54679;SDS011;40578;53.178;5.846;2022-08-01T07:59:40;10.27;;;2.20;;
54679;SDS011;40578;53.178;5.846;2022-08-01T08:02:05;8.00;;;2.43;;
54679;SDS011;40578;53.178;5.846;2022-08-01T08:04:31;7.47;;;1.73;;
54679;SDS011;40578;53.178;5.846;2022-08-01T08:06:57;11.10;;;2.90;;
54679;SDS011;40578;53.178;5.846;2022-08-01T08:09:22;9.30;;;2.27;;
54679;SDS011;40578;53.178;5.846;2022-08-01T08:11:48;9.00;;;2.27;;
54679;SDS011;40578;53.178;5.846;2022-08-01T08:14:14;5.90;;;2.50;;
54679;SDS011;40578;53.178;5.846;2022-08-01T08:16:41;9.27;;;2.45;;
54679;SDS011;40578;53.178;5.846;2022-08-01T08:19:07;9.73;;;2.00;;
54679;SDS011;40578;53.178;5.846;2022-08-01T08:21:33;9.67;;;2.40;;
54679;SDS011;40578;53.178;5.846;2022-08-01T08:23:58;13.53;;;2.60;;
54679;SDS011;40578;53.178;5.846;2022-08-01T08:26:42;14.07;;;4.38;;
54679;SDS011;40578;53.178;5.846;2022-08-01T08:29:08;11.30;;;3.77;;
54679;SDS011;40578;53.178;5.846;2022-08-01T08:31:33;11.13;;;3.33;;
54679;SDS011;40578;53.178;5.846;2022-08-01T08:33:59;8.00;;;2.47;;
54679;SDS011;40578;53.178;5.846;2022-08-01T08:36:25;9.10;;;2.50;;
54679;SDS011;40578;53.178;5.846;2022-08-01T08:38:50;14.53;;;2.03;;
54679;SDS011;40578;53.178;5.846;2022-08-01T08:41:16;7.30;;;1.83;;
54679;SDS011;40578;53.178;5.846;2022-08-01T08:43:42;11.35;;;2.92;;
54679;SDS011;40578;53.178;5.846;2022-08-01T08:46:07;7.80;;;1.80;;
54679;SDS011;40578;53.178;5.846;2022-08-01T08:48:34;8.02;;;2.03;;
54679;SDS011;40578;53.178;5.846;2022-08-01T08:51:01;7.28;;;1.95;;
54679;SDS011;40578;53.178;5.846;2022-08-01T08:53:27;15.00;;;2.22;;
54679;SDS011;40578;53.178;5.846;2022-08-01T08:55:56;7.78;;;2.72;;
54679;SDS011;40578;53.178;5.846;2022-08-01T08:58:23;9.93;;;2.20;;
54679;SDS011;40578;53.178;5.846;2022-08-01T09:00:52;18.35;;;2.47;;
54679;SDS011;40578;53.178;5.846;2022-08-01T09:03:19;10.13;;;1.75;;
54679;SDS011;40578;53.178;5.846;2022-08-01T09:05:44;7.17;;;1.80;;
54679;SDS011;40578;53.178;5.846;2022-08-01T09:08:10;8.35;;;1.83;;
54679;SDS011;40578;53.178;5.846;2022-08-01T09:10:37;10.85;;;2.10;;
54679;SDS011;40578;53.178;5.846;2022-08-01T09:13:10;8.87;;;1.70;;
54679;SDS011;40578;53.178;5.846;2022-08-01T09:15:42;15.15;;;2.10;;
54679;SDS011;40578;53.178;5.846;2022-08-01T09:23:44;3.80;;;1.30;;
54679;SDS011;40578;53.178;5.846;2022-08-01T09:26:12;11.85;;;1.70;;
54679;SDS011;40578;53.178;5.846;2022-08-01T09:28:39;8.60;;;1.50;;
54679;SDS011;40578;53.178;5.846;2022-08-01T09:31:06;11.27;;;1.90;;
54679;SDS011;40578;53.178;5.846;2022-08-01T09:36:19;10.05;;;1.90;;
54679;SDS011;40578;53.178;5.846;2022-08-01T09:38:49;11.20;;;2.20;;
54679;SDS011;40578;53.178;5.846;2022-08-01T09:41:16;9.70;;;1.95;;
54679;SDS011;40578;53.178;5.846;2022-08-01T09:43:47;6.93;;;1.48;;
54679;SDS011;40578;53.178;5.846;2022-08-01T09:46:15;6.95;;;1.55;;
54679;SDS011;40578;53.178;5.846;2022-08-01T09:48:54;10.43;;;1.90;;
54679;SDS011;40578;53.178;5.846;2022-08-01T09:51:30;6.47;;;1.70;;
54679;SDS011;40578;53.178;5.846;2022-08-01T09:54:01;9.93;;;1.90;;
54679;SDS011;40578;53.178;5.846;2022-08-01T09:56:35;6.90;;;1.60;;
54679;SDS011;40578;53.178;5.846;2022-08-01T09:59:02;9.48;;;1.50;;
54679;SDS011;40578;53.178;5.846;2022-08-01T10:01:29;8.18;;;1.67;;
54679;SDS011;40578;53.178;5.846;2022-08-01T10:04:11;5.53;;;1.60;;
54679;SDS011;40578;53.178;5.846;2022-08-01T10:06:39;6.68;;;1.23;;
54679;SDS011;40578;53.178;5.846;2022-08-01T10:09:08;6.18;;;1.60;;
54679;SDS011;40578;53.178;5.846;2022-08-01T10:11:34;7.68;;;1.33;;
54679;SDS011;40578;53.178;5.846;2022-08-01T10:14:04;9.90;;;1.98;;
54679;SDS011;40578;53.178;5.846;2022-08-01T10:18:56;6.82;;;1.55;;
54679;SDS011;40578;53.178;5.846;2022-08-01T10:21:23;9.05;;;1.95;;
54679;SDS011;40578;53.178;5.846;2022-08-01T10:23:53;7.30;;;1.45;;
54679;SDS011;40578;53.178;5.846;2022-08-01T10:26:21;9.05;;;1.90;;
54679;SDS011;40578;53.178;5.846;2022-08-01T10:28:49;4.32;;;1.15;;
54679;SDS011;40578;53.178;5.846;2022-08-01T10:31:16;4.88;;;1.65;;
54679;SDS011;40578;53.178;5.846;2022-08-01T10:33:43;8.65;;;1.77;;
54679;SDS011;40578;53.178;5.846;2022-08-01T10:36:09;6.00;;;1.40;;
54679;SDS011;40578;53.178;5.846;2022-08-01T10:38:35;5.33;;;1.90;;
54679;SDS011;40578;53.178;5.846;2022-08-01T10:41:02;5.40;;;1.75;;
54679;SDS011;40578;53.178;5.846;2022-08-01T10:43:29;10.25;;;1.83;;
54679;SDS011;40578;53.178;5.846;2022-08-01T10:45:55;8.30;;;1.73;;
54679;SDS011;40578;53.178;5.846;2022-08-01T10:49:04;7.63;;;1.77;;
54679;SDS011;40578;53.178;5.846;2022-08-01T10:51:15;6.55;;;1.60;;
54679;SDS011;40578;53.178;5.846;2022-08-01T10:53:51;5.57;;;1.38;;
54679;SDS011;40578;53.178;5.846;2022-08-01T10:56:18;6.13;;;1.58;;
54679;SDS011;40578;53.178;5.846;2022-08-01T10:58:44;5.10;;;1.50;;
54679;SDS011;40578;53.178;5.846;2022-08-01T11:01:19;8.70;;;1.60;;
54679;SDS011;40578;53.178;5.846;2022-08-01T11:04:02;8.57;;;1.67;;
54679;SDS011;40578;53.178;5.846;2022-08-01T11:09:00;5.55;;;1.50;;
54679;SDS011;40578;53.178;5.846;2022-08-01T11:14:25;6.57;;;1.55;;
54679;SDS011;40578;53.178;5.846;2022-08-01T11:16:51;6.95;;;1.50;;
54679;SDS011;40578;53.178;5.846;2022-08-01T11:19:16;5.40;;;1.53;;
54679;SDS011;40578;53.178;5.846;2022-08-01T11:27:20;5.20;;;1.38;;
54679;SDS011;40578;53.178;5.846;2022-08-01T11:32:50;8.18;;;1.40;;
54679;SDS011;40578;53.178;5.846;2022-08-01T11:35:23;6.60;;;1.55;;
54679;SDS011;40578;53.178;5.846;2022-08-01T11:37:51;8.07;;;1.80;;
54679;SDS011;40578;53.178;5.846;2022-08-01T11:42:51;6.63;;;1.40;;
54679;SDS011;40578;53.178;5.846;2022-08-01T11:45:48;6.55;;;1.40;;
54679;SDS011;40578;53.178;5.846;2022-08-01T11:48:18;19.83;;;2.00;;
54679;SDS011;40578;53.178;5.846;2022-08-01T11:50:51;12.02;;;1.80;;
54679;SDS011;40578;53.178;5.846;2022-08-01T11:53:19;11.40;;;1.92;;
54679;SDS011;40578;53.178;5.846;2022-08-01T11:55:45;4.85;;;1.30;;
54679;SDS011;40578;53.178;5.846;2022-08-01T11:58:13;6.75;;;1.67;;
54679;SDS011;40578;53.178;5.846;2022-08-01T12:00:40;5.50;;;1.55;;
54679;SDS011;40578;53.178;5.846;2022-08-01T12:03:07;5.93;;;1.42;;
54679;SDS011;40578;53.178;5.846;2022-08-01T12:05:34;6.50;;;1.30;;
54679;SDS011;40578;53.178;5.846;2022-08-01T12:08:02;5.40;;;1.23;;
54679;SDS011;40578;53.178;5.846;2022-08-01T12:10:30;4.25;;;1.10;;
54679;SDS011;40578;53.178;5.846;2022-08-01T12:13:01;7.07;;;1.30;;
54679;SDS011;40578;53.178;5.846;2022-08-01T12:15:30;3.58;;;1.00;;
54679;SDS011;40578;53.178;5.846;2022-08-01T12:18:00;5.97;;;1.55;;
54679;SDS011;40578;53.178;5.846;2022-08-01T12:20:28;7.45;;;1.50;;
54679;SDS011;40578;53.178;5.846;2022-08-01T12:22:55;5.72;;;1.48;;
54679;SDS011;40578;53.178;5.846;2022-08-01T12:27:48;6.18;;;1.40;;
54679;SDS011;40578;53.178;5.846;2022-08-01T12:30:18;6.32;;;1.25;;
54679;SDS011;40578;53.178;5.846;2022-08-01T12:32:48;6.97;;;1.50;;
54679;SDS011;40578;53.178;5.846;2022-08-01T12:35:15;8.27;;;1.58;;
54679;SDS011;40578;53.178;5.846;2022-08-01T12:37:43;7.38;;;1.75;;
54679;SDS011;40578;53.178;5.846;2022-08-01T12:40:21;6.95;;;1.80;;
54679;SDS011;40578;53.178;5.846;2022-08-01T12:42:50;4.43;;;1.02;;
54679;SDS011;40578;53.178;5.846;2022-08-01T12:45:19;5.38;;;1.20;;
54679;SDS011;40578;53.178;5.846;2022-08-01T12:47:49;4.03;;;1.25;;
54679;SDS011;40578;53.178;5.846;2022-08-01T12:50:16;5.10;;;1.33;;
54679;SDS011;40578;53.178;5.846;2022-08-01T12:52:48;6.35;;;1.50;;
54679;SDS011;40578;53.178;5.846;2022-08-01T12:55:16;4.53;;;1.17;;
54679;SDS011;40578;53.178;5.846;2022-08-01T12:57:44;4.97;;;1.05;;
54679;SDS011;40578;53.178;5.846;2022-08-01T13:00:24;8.50;;;1.40;;
54679;SDS011;40578;53.178;5.846;2022-08-01T13:03:02;6.20;;;1.30;;
54679;SDS011;40578;53.178;5.846;2022-08-01T13:08:16;5.47;;;1.25;;
54679;SDS011;40578;53.178;5.846;2022-08-01T13:10:43;6.72;;;1.52;;
54679;SDS011;40578;53.178;5.846;2022-08-01T13:13:10;4.70;;;1.30;;
54679;SDS011;40578;53.178;5.846;2022-08-01T13:15:37;4.47;;;1.20;;
54679;SDS011;40578;53.178;5.846;2022-08-01T13:20:50;5.38;;;1.23;;
54679;SDS011;40578;53.178;5.846;2022-08-01T13:23:38;6.03;;;1.75;;
54679;SDS011;40578;53.178;5.846;2022-08-01T13:28:30;5.40;;;1.42;;
54679;SDS011;40578;53.178;5.846;2022-08-01T13:33:27;5.85;;;1.48;;
54679;SDS011;40578;53.178;5.846;2022-08-01T13:36:05;6.70;;;1.70;;
54679;SDS011;40578;53.178;5.846;2022-08-01T13:38:31;5.53;;;1.30;;
54679;SDS011;40578;53.178;5.846;2022-08-01T13:41:15;4.80;;;1.25;;
54679;SDS011;40578;53.178;5.846;2022-08-01T13:43:41;8.37;;;1.23;;
54679;SDS011;40578;53.178;5.846;2022-08-01T13:46:06;6.07;;;1.57;;
54679;SDS011;40578;53.178;5.846;2022-08-01T13:48:32;6.87;;;1.83;;
54679;SDS011;40578;53.178;5.846;2022-08-01T13:50:58;6.80;;;1.70;;
54679;SDS011;40578;53.178;5.846;2022-08-01T13:53:24;4.63;;;1.60;;
54679;SDS011;40578;53.178;5.846;2022-08-01T13:55:50;4.68;;;1.17;;
54679;SDS011;40578;53.178;5.846;2022-08-01T13:58:16;6.60;;;1.40;;
54679;SDS011;40578;53.178;5.846;2022-08-01T14:00:42;6.82;;;1.40;;
54679;SDS011;40578;53.178;5.846;2022-08-01T14:03:07;6.07;;;1.60;;
54679;SDS011;40578;53.178;5.846;2022-08-01T14:05:35;6.50;;;1.35;;
54679;SDS011;40578;53.178;5.846;2022-08-01T14:08:01;5.13;;;1.35;;
54679;SDS011;40578;53.178;5.846;2022-08-01T14:10:27;6.93;;;1.63;;
54679;SDS011;40578;53.178;5.846;2022-08-01T14:12:52;6.83;;;1.67;;
54679;SDS011;40578;53.178;5.846;2022-08-01T14:15:19;6.93;;;1.70;;
54679;SDS011;40578;53.178;5.846;2022-08-01T14:17:45;5.53;;;1.33;;
54679;SDS011;40578;53.178;5.846;2022-08-01T14:20:10;3.67;;;1.17;;
54679;SDS011;40578;53.178;5.846;2022-08-01T14:22:36;3.23;;;0.93;;
54679;SDS011;40578;53.178;5.846;2022-08-01T14:25:02;5.57;;;1.10;;
54679;SDS011;40578;53.178;5.846;2022-08-01T14:27:28;5.03;;;1.20;;
54679;SDS011;40578;53.178;5.846;2022-08-01T14:29:55;9.00;;;1.60;;
54679;SDS011;40578;53.178;5.846;2022-08-01T14:32:22;4.95;;;1.20;;
54679;SDS011;40578;53.178;5.846;2022-08-01T14:34:47;4.43;;;1.27;;
54679;SDS011;40578;53.178;5.846;2022-08-01T14:37:13;5.67;;;1.53;;
54679;SDS011;40578;53.178;5.846;2022-08-01T14:39:38;7.07;;;1.70;;
54679;SDS011;40578;53.178;5.846;2022-08-01T14:42:04;5.07;;;1.20;;
54679;SDS011;40578;53.178;5.846;2022-08-01T14:44:30;6.03;;;1.10;;
54679;SDS011;40578;53.178;5.846;2022-08-01T14:46:55;7.73;;;1.60;;
54679;SDS011;40578;53.178;5.846;2022-08-01T14:49:21;7.60;;;1.77;;
54679;SDS011;40578;53.178;5.846;2022-08-01T14:51:46;6.97;;;1.20;;
54679;SDS011;40578;53.178;5.846;2022-08-01T14:54:12;5.57;;;1.47;;
54679;SDS011;40578;53.178;5.846;2022-08-01T14:56:38;5.38;;;1.08;;
54679;SDS011;40578;53.178;5.846;2022-08-01T14:59:03;4.30;;;1.10;;
54679;SDS011;40578;53.178;5.846;2022-08-01T15:01:29;5.93;;;1.77;;
54679;SDS011;40578;53.178;5.846;2022-08-01T15:03:55;5.07;;;1.53;;
54679;SDS011;40578;53.178;5.846;2022-08-01T15:06:20;3.97;;;1.23;;
54679;SDS011;40578;53.178;5.846;2022-08-01T15:08:46;5.80;;;1.40;;
54679;SDS011;40578;53.178;5.846;2022-08-01T15:11:12;6.50;;;1.37;;
54679;SDS011;40578;53.178;5.846;2022-08-01T15:13:37;4.77;;;1.43;;
54679;SDS011;40578;53.178;5.846;2022-08-01T15:16:03;5.30;;;1.13;;
54679;SDS011;40578;53.178;5.846;2022-08-01T15:18:29;6.27;;;1.27;;
54679;SDS011;40578;53.178;5.846;2022-08-01T15:20:55;5.27;;;1.20;;
54679;SDS011;40578;53.178;5.846;2022-08-01T15:23:22;6.20;;;1.30;;
54679;SDS011;40578;53.178;5.846;2022-08-01T15:25:47;5.93;;;1.30;;
54679;SDS011;40578;53.178;5.846;2022-08-01T15:28:13;6.00;;;1.30;;
54679;SDS011;40578;53.178;5.846;2022-08-01T15:30:39;5.87;;;1.20;;
54679;SDS011;40578;53.178;5.846;2022-08-01T15:33:05;6.20;;;1.83;;
54679;SDS011;40578;53.178;5.846;2022-08-01T15:35:31;5.60;;;1.42;;
54679;SDS011;40578;53.178;5.846;2022-08-01T15:37:58;3.75;;;1.20;;
54679;SDS011;40578;53.178;5.846;2022-08-01T15:40:23;4.87;;;1.20;;
54679;SDS011;40578;53.178;5.846;2022-08-01T15:42:49;6.13;;;1.30;;
54679;SDS011;40578;53.178;5.846;2022-08-01T15:45:14;5.60;;;1.50;;
54679;SDS011;40578;53.178;5.846;2022-08-01T15:47:43;3.70;;;1.30;;